Steptoe Valley WMA, Nevada Weather observations

Data are for 10 minute period ending at time listed.
 Day   Time   Solar   Ave.   Ave.  Ave.  Vector  Max.   Baro.   Total    
  of    of     Rad.   Air    Rel.  Wind   Wind   Wind  Press.  Precip.   
Year   Day            Temp.  Hum.  Speed  Dir.   Gust                    
2017   (PST)  Kw/m2    F      %     mph   deg.    mph    mb.     in.     
-------------------------------------------------------------------------
 116    9:00   0.79   48.4    47    3.3     3     8.8   798.6    0.00 
 116    9:10   0.56   48.2    48    4.8   314    10.0   798.8    0.00 
 116    9:20   0.54   48.6    48    5.6   314    11.9   798.6    0.00 
 116    9:30   0.31   47.4    50    6.6     1    11.4   798.2    0.00 
 116    9:40   0.35   47.9    50    7.9   358    14.8   797.9    0.00 
 116    9:50   0.41   49.4    47   10.1   336    14.0   797.8    0.00 
 116   10:00   0.43   49.7    46    6.9   333    12.2   797.7    0.00 
 116   10:10   0.40   50.6    44    5.3     6    10.1   797.5    0.00 
 116   10:20   0.32   51.0    43    4.0   213     7.0   797.6    0.00 
 116   10:30   0.31   50.9    42    3.0   325     8.6   797.4    0.00 
 116   10:40   0.27   50.9    42    2.4   101     5.3   797.3    0.00 
 116   10:50   0.31   51.6    42    2.2   171     5.7   797.2    0.00 
 116   11:00   0.38   51.8    41    2.7   109     8.1   796.9    0.00 
 116   11:10   0.57   53.1    41    7.7   262    15.6   796.8    0.00 
 116   11:20   0.21   51.6    42    8.9   266    15.3   796.9    0.00 
 116   11:30   0.25   51.4    43    6.6   252    11.2   796.8    0.00 
 116   11:40   0.31   51.9    42    8.0   271    14.2   796.5    0.00 
 116   11:50   0.28   52.1    42    8.5   198    14.2   796.5    0.00 
 116   12:00   0.23   52.3    41    6.7   197    12.9   796.5    0.00 
 116   12:10   0.27   52.3    41    3.8   195    11.9   796.4    0.00 
 116   12:20   0.78   54.6    39    8.4   251    22.4   796.3    0.00 
 116   12:30   0.80   55.4    38    9.5   266    18.7   796.1    0.00 
 116   12:40   0.92   56.1    38    8.6   254    21.0   795.9    0.00 
 116   12:50   0.87   57.6    37    8.2   269    15.4   795.7    0.00 
 116   13:00   0.84   56.6    39   12.2   287    19.2   795.8    0.00 
 116   13:10   0.55   55.9    40   10.2   294    16.4   795.7    0.00 
 116   13:20   0.23   53.2    43    9.9   295    21.0   795.7    0.00 
 116   13:30   0.17   52.2    48    9.7   283    17.6   795.7    0.00 
 116   13:40   0.23   51.9    46    9.8   268    19.9   795.7    0.00 
 116   13:50   0.29   52.5    48    9.4   266    16.4   795.7    0.00 
 116   14:00   0.20   51.3    50    6.2   251    12.9   795.5    0.00 
 116   14:10   0.09   50.5    52    5.2   224     8.5   795.4    0.00 
 116   14:20   0.49   50.7    61    5.1   288    10.7   795.4    0.00 
 116   14:30   0.71   53.1    58    4.3   309     8.8   795.0    0.00 
 116   14:40   0.55   54.4    52    2.1    29     5.4   794.6    0.00 
 116   14:50   0.18   53.9    52    1.4    17     7.6   794.3    0.00 
 116   15:00   0.03   51.1    57   13.7   320    25.1   794.6    0.00 
 116   15:10   0.04   46.0    77   16.3   322    25.5   795.1    0.01 
 116   15:20   0.38   45.3    85   12.2   328    19.7   795.0    0.00 
 116   15:30   0.43   49.5    78    8.8   308    13.9   794.6    0.01 
 116   15:40   0.17   48.9    75    8.9   316    13.9   794.9    0.00 
 116   15:50   0.17   48.8    73   10.5   297    19.0   794.8    0.00 
 116   16:00   0.12   48.5    74    9.6   300    14.0   794.7    0.00 
 116   16:10   0.05   46.5    77   14.0   312    28.6   795.4    0.02 
 116   16:20   0.28   45.1    81   14.7   335    21.6   795.5    0.00 
 116   16:30   0.25   46.2    80   13.0   333    21.4   795.3    0.00 
 116   16:40   0.14   45.7    80    9.8   338    15.0   795.2    0.00 
 116   16:50   0.09   45.6    80    8.6   340    14.5   795.2    0.00 
 116   17:00   0.03   44.9    81   11.5   345    20.8   795.2    0.00 
 116   17:10   0.02   44.2    81   16.1   330    27.7   795.5    0.01 
 116   17:20   0.07   43.5    86   10.8   328    15.5   795.6    0.01 
 116   17:30   0.10   44.2    85   10.1   336    13.8   795.6    0.00 
 116   17:40   0.12   44.8    83    9.9   331    14.8   795.5    0.00 
 116   17:50   0.03   44.1    81   11.5   318    20.9   795.3    0.00 
 116   18:00   0.03   43.9    79   13.5   297    22.4   795.0    0.00 
 116   18:10   0.04   44.3    78   13.7   294    25.1   794.7    0.00 
 116   18:20   0.02   44.1    79    9.5   299    15.1   794.8    0.00 
 116   18:30   0.01   43.5    80   10.3   316    16.6   795.0    0.00 
 116   18:40   0.00   43.3    80   12.1   310    18.6   795.4    0.00 
 116   18:50   0.00   42.9    80    8.8   331    15.5   795.4    0.00 
 116   19:00   0.00   41.7    83    5.3     6     8.1   795.4    0.00 
 116   19:10   0.00   41.6    83    5.3    10     7.8   795.4    0.00 
 116   19:20   0.00   41.1    83    3.0   357     4.9   795.4    0.00 
 116   19:30   0.00   41.6    83    4.1     8     6.4   795.6    0.00 
 116   19:40   0.00   42.1    82    3.6    40     5.3   795.7    0.00 
 116   19:50   0.00   42.2    82    5.8    25     9.2   795.9    0.00 
 116   20:00   0.00   41.9    81    5.5    15     9.2   796.1    0.00 
 116   20:10   0.00   41.4    84    5.3   349     8.4   796.3    0.00 
 116   20:20   0.00   41.1    85    9.8   341    17.5   796.5    0.00 
 116   20:30   0.00   40.5    88    8.7   335    14.9   796.5    0.00 
 116   20:40   0.00   39.8    90    6.6   346     9.7   796.5    0.00 
 116   20:50   0.00   39.6    90    6.2   327    11.2   796.5    0.00 
 116   21:00   0.00   40.2    88    7.5   337    11.6   796.6    0.00 
 116   21:10   0.00   40.8    85   10.6   314    17.0   796.6    0.01 
 116   21:20   0.00   40.4    84   10.8   302    20.1   796.7    0.00 
 116   21:30   0.00   39.8    86    5.8   324    10.6   796.6    0.00 
 116   21:40   0.00   39.4    87    4.9   346     8.3   796.5    0.00 
 116   21:50   0.00   39.5    87    5.4   351     8.3   796.4    0.00 
 116   22:00   0.00   39.7    86    6.0   330     8.9   796.5    0.00 
 116   22:10   0.00   39.8    86    5.4   338     9.0   796.3    0.00 
 116   22:20   0.00   39.3    88    3.2   341     4.6   796.1    0.00 
 116   22:30   0.00   38.7    89    2.7   309     4.4   796.1    0.00 
 116   22:40   0.00   38.6    89    2.9   341     5.3   796.3    0.00 
 116   22:50   0.00   38.5    89    3.5   349     7.9   796.2    0.00 
 116   23:00   0.00   39.0    88    4.6   345     6.9   796.1    0.00 
 116   23:10   0.00   39.1    89    3.0   342     4.6   796.1    0.00 
 116   23:20   0.00   39.2    90    8.5   340    15.3   796.2    0.00 
 116   23:30   0.00   38.5    90   10.3     0    17.8   796.2    0.00 
 116   23:40   0.00   38.2    89    7.5     4    11.3   796.1    0.00 
 116   23:50   0.00   38.3    88    6.4     3    11.8   796.3    0.00 
 117    0:00   0.00   38.4    88    6.2   353     8.4   796.2    0.00 
 117    0:10   0.00   38.2    90    5.5   357     7.7   796.1    0.00 
 117    0:20   0.00   37.9    91    4.3   352     5.6   796.1    0.00 
 117    0:30   0.00   37.9    92    4.9   350     7.3   796.1    0.00 
 117    0:40   0.00   38.2    91    6.5   355    10.7   796.1    0.00 
 117    0:50   0.00   38.4    89    7.7   351    11.5   796.2    0.01 
 117    1:00   0.00   38.2    89    9.1   324    13.7   796.4    0.00 
 117    1:10   0.00   38.0    88    9.1   321    17.2   796.5    0.00 
 117    1:20   0.00   37.6    88    9.9   335    17.0   796.6    0.00 
 117    1:30   0.00   37.3    88    8.9   344    12.1   796.4    0.00 
 117    1:40   0.00   37.0    89    8.3   352    12.9   796.5    0.00 
 117    1:50   0.00   37.1    88   11.1   337    18.9   796.8    0.00 
 117    2:00   0.00   36.7    88   10.7   356    17.6   796.6    0.01 
 117    2:10   0.00   36.0    88    9.3   355    13.6   796.6    0.00 
 117    2:20   0.00   36.0    90    8.8   348    13.2   796.9    0.00 
 117    2:30   0.00   36.0    90    7.9   331    11.8   797.0    0.00 
 117    2:40   0.00   36.0    90    8.3   329    14.0   796.9    0.00 
 117    2:50   0.00   36.0    89    7.7   324    12.6   797.0    0.00 
 117    3:00   0.00   35.9    89    7.0   328     9.8   797.0    0.00 
 117    3:10   0.00   35.7    90    5.4   331     7.9   797.0    0.00 
 117    3:20   0.00   35.2    90    5.0   338     6.9   796.9    0.00 
 117    3:30   0.00   33.9    89    4.5   334     6.9   796.9    0.00 
 117    3:40   0.00   32.9    90    4.3   344     6.1   796.8    0.00 
 117    3:50   0.00   32.4    91    3.1   343     4.8   796.8    0.00 
 117    4:00   0.00   31.9    91    3.9   357     5.6   796.9    0.00 
 117    4:10   0.00   31.8    92    4.5   356     5.8   797.0    0.00 
 117    4:20   0.00   31.8    92    4.5   359     7.5   796.8    0.00 
 117    4:30   0.00   31.7    92    4.3   351     6.4   796.9    0.00 
 117    4:40   0.00   31.4    92    4.3   354     6.7   796.9    0.00 
 117    4:50   0.00   31.1    91    3.5   349     6.2   797.0    0.00 
 117    5:00   0.01   30.6    91    1.8   347     3.5   797.0    0.00 
 117    5:10   0.02   30.6    91    2.1   355     3.0   797.1    0.00 
 117    5:20   0.03   31.5    91    4.5   317     6.4   797.0    0.00 
 117    5:30   0.06   32.5    88    5.5   322     7.7   797.2    0.00 
 117    5:40   0.08   33.3    85    5.7   322     7.9   797.1    0.00 
 117    5:50   0.11   34.3    84    6.1   318     9.3   797.1    0.00 
 117    6:00   0.16   35.3    81    6.4   320     9.4   797.0    0.00 
 117    6:10   0.16   35.8    81    4.6   322     8.3   797.0    0.00 
 117    6:20   0.13   36.1    76    6.4   330    11.3   797.0    0.00 
 117    6:30   0.20   36.4    75    6.2   333     9.7   796.9    0.00 
 117    6:40   0.25   37.2    76    6.2   347     9.1   797.0    0.00 
 117    6:50   0.33   38.3    72    7.4   347    11.2   797.0    0.00 
 117    7:00   0.27   38.1    70    7.9   344    11.2   797.1    0.00 
 117    7:10   0.37   38.5    66    7.6   344    10.2   797.1    0.00 
 117    7:20   0.31   38.4    64    8.9   355    13.5   797.1    0.00 
 117    7:30   0.50   39.4    64    9.2   347    13.6   797.1    0.00 
 117    7:40   0.53   40.0    63   10.1   350    15.6   797.2    0.00 
 117    7:50   0.58   40.7    60    9.3   346    14.2   797.2    0.00 
 117    8:00   0.41   40.5    60    8.9   343    14.7   797.2    0.00 
 117    8:10   0.63   41.4    59   10.1   330    14.8   797.1    0.00 
 117    8:20   0.25   40.2    55   10.9   327    18.1   797.2    0.00 
 117    8:30   0.25   39.8    57   10.5   335    18.0   797.3    0.00 
 117    8:40   0.34   40.2    55   10.2   327    14.8   797.3    0.00 
 117    8:50   0.48   41.3    52   11.4   336    16.4   797.2    0.00 

Return to Steptoe Valley WMA graphs page.


Western Regional Climate Center,wrcc@dri.edu